sensor_id;sensor_type;location;lat;lon;timestamp;temperature;humidity
53254;DHT22;39148;53.332;6.922;2022-08-19T00:00:19;21.60;78.80
53254;DHT22;39148;53.332;6.922;2022-08-19T00:02:46;21.50;78.70
53254;DHT22;39148;53.332;6.922;2022-08-19T00:05:13;21.50;78.80
53254;DHT22;39148;53.332;6.922;2022-08-19T00:07:42;21.50;78.90
53254;DHT22;39148;53.332;6.922;2022-08-19T00:10:10;21.50;78.90
53254;DHT22;39148;53.332;6.922;2022-08-19T00:12:36;21.40;78.90
53254;DHT22;39148;53.332;6.922;2022-08-19T00:15:10;21.50;79.00
53254;DHT22;39148;53.332;6.922;2022-08-19T00:17:40;21.50;78.80
53254;DHT22;39148;53.332;6.922;2022-08-19T00:20:06;21.40;79.00
53254;DHT22;39148;53.332;6.922;2022-08-19T00:22:32;21.40;78.50
53254;DHT22;39148;53.332;6.922;2022-08-19T00:24:58;21.40;78.90
53254;DHT22;39148;53.332;6.922;2022-08-19T00:27:24;21.40;78.90
53254;DHT22;39148;53.332;6.922;2022-08-19T00:29:49;21.40;78.90
53254;DHT22;39148;53.332;6.922;2022-08-19T00:32:16;21.40;79.00
53254;DHT22;39148;53.332;6.922;2022-08-19T00:34:42;21.40;79.10
53254;DHT22;39148;53.332;6.922;2022-08-19T00:37:09;21.30;78.90
53254;DHT22;39148;53.332;6.922;2022-08-19T00:39:35;21.30;79.40
53254;DHT22;39148;53.332;6.922;2022-08-19T00:42:01;21.40;79.10
53254;DHT22;39148;53.332;6.922;2022-08-19T00:44:28;21.30;79.00
53254;DHT22;39148;53.332;6.922;2022-08-19T00:46:56;21.40;79.20
53254;DHT22;39148;53.332;6.922;2022-08-19T00:49:50;21.30;79.20
53254;DHT22;39148;53.332;6.922;2022-08-19T00:52:21;21.20;78.30
53254;DHT22;39148;53.332;6.922;2022-08-19T00:54:48;21.20;79.20
53254;DHT22;39148;53.332;6.922;2022-08-19T00:57:17;21.30;79.00
53254;DHT22;39148;53.332;6.922;2022-08-19T00:59:46;21.10;79.20
53254;DHT22;39148;53.332;6.922;2022-08-19T01:02:15;21.20;79.20
53254;DHT22;39148;53.332;6.922;2022-08-19T01:04:40;21.20;79.20
53254;DHT22;39148;53.332;6.922;2022-08-19T01:07:07;21.10;79.00
53254;DHT22;39148;53.332;6.922;2022-08-19T01:09:33;21.00;79.10
53254;DHT22;39148;53.332;6.922;2022-08-19T01:12:00;21.10;79.10
53254;DHT22;39148;53.332;6.922;2022-08-19T01:14:26;21.20;79.20
53254;DHT22;39148;53.332;6.922;2022-08-19T01:16:53;21.20;79.10
53254;DHT22;39148;53.332;6.922;2022-08-19T01:19:26;21.10;79.30
53254;DHT22;39148;53.332;6.922;2022-08-19T01:22:00;21.20;78.10
53254;DHT22;39148;53.332;6.922;2022-08-19T01:24:26;21.10;79.40
53254;DHT22;39148;53.332;6.922;2022-08-19T01:26:52;21.10;79.20
53254;DHT22;39148;53.332;6.922;2022-08-19T01:29:18;21.10;79.30
53254;DHT22;39148;53.332;6.922;2022-08-19T01:31:43;21.10;79.20
53254;DHT22;39148;53.332;6.922;2022-08-19T01:34:10;21.10;79.20
53254;DHT22;39148;53.332;6.922;2022-08-19T01:36:40;21.10;79.30
53254;DHT22;39148;53.332;6.922;2022-08-19T01:39:10;21.00;79.30
53254;DHT22;39148;53.332;6.922;2022-08-19T01:41:36;21.00;79.40
53254;DHT22;39148;53.332;6.922;2022-08-19T01:44:03;21.00;79.30
53254;DHT22;39148;53.332;6.922;2022-08-19T01:46:30;21.00;79.40
53254;DHT22;39148;53.332;6.922;2022-08-19T01:48:56;20.90;79.30
53254;DHT22;39148;53.332;6.922;2022-08-19T01:51:22;21.00;79.30
53254;DHT22;39148;53.332;6.922;2022-08-19T01:53:49;20.80;79.20
53254;DHT22;39148;53.332;6.922;2022-08-19T01:56:15;20.90;79.40
53254;DHT22;39148;53.332;6.922;2022-08-19T01:58:47;20.90;79.40
53254;DHT22;39148;53.332;6.922;2022-08-19T02:01:14;20.90;79.50
53254;DHT22;39148;53.332;6.922;2022-08-19T02:03:40;20.80;79.20
53254;DHT22;39148;53.332;6.922;2022-08-19T02:06:06;20.90;79.30
53254;DHT22;39148;53.332;6.922;2022-08-19T02:08:35;20.80;79.30
53254;DHT22;39148;53.332;6.922;2022-08-19T02:11:01;20.80;79.50
53254;DHT22;39148;53.332;6.922;2022-08-19T02:13:27;20.80;79.30
53254;DHT22;39148;53.332;6.922;2022-08-19T02:15:53;20.70;79.30
53254;DHT22;39148;53.332;6.922;2022-08-19T02:18:19;20.80;79.30
53254;DHT22;39148;53.332;6.922;2022-08-19T02:20:45;20.70;79.40
53254;DHT22;39148;53.332;6.922;2022-08-19T02:23:13;20.80;79.40
53254;DHT22;39148;53.332;6.922;2022-08-19T02:25:40;20.70;79.60
53254;DHT22;39148;53.332;6.922;2022-08-19T02:28:06;20.80;79.60
53254;DHT22;39148;53.332;6.922;2022-08-19T02:30:31;20.80;79.40
53254;DHT22;39148;53.332;6.922;2022-08-19T02:32:57;20.80;79.50
53254;DHT22;39148;53.332;6.922;2022-08-19T02:35:24;20.60;79.40
53254;DHT22;39148;53.332;6.922;2022-08-19T02:37:49;20.70;79.50
53254;DHT22;39148;53.332;6.922;2022-08-19T02:40:34;20.60;78.90
53254;DHT22;39148;53.332;6.922;2022-08-19T02:43:01;20.60;79.40
53254;DHT22;39148;53.332;6.922;2022-08-19T02:45:32;20.70;79.70
53254;DHT22;39148;53.332;6.922;2022-08-19T02:47:58;20.60;79.70
53254;DHT22;39148;53.332;6.922;2022-08-19T02:50:23;20.60;79.80
53254;DHT22;39148;53.332;6.922;2022-08-19T02:52:49;20.70;79.50
53254;DHT22;39148;53.332;6.922;2022-08-19T02:55:15;20.60;79.50
53254;DHT22;39148;53.332;6.922;2022-08-19T02:57:40;20.60;79.40
53254;DHT22;39148;53.332;6.922;2022-08-19T03:00:07;20.50;79.50
53254;DHT22;39148;53.332;6.922;2022-08-19T03:02:34;20.60;79.30
53254;DHT22;39148;53.332;6.922;2022-08-19T03:05:02;20.60;79.50
53254;DHT22;39148;53.332;6.922;2022-08-19T03:07:28;20.50;79.70
53254;DHT22;39148;53.332;6.922;2022-08-19T03:09:54;20.60;79.60
53254;DHT22;39148;53.332;6.922;2022-08-19T03:12:19;20.50;79.50
53254;DHT22;39148;53.332;6.922;2022-08-19T03:14:45;20.50;79.50
53254;DHT22;39148;53.332;6.922;2022-08-19T03:17:12;20.50;79.50
53254;DHT22;39148;53.332;6.922;2022-08-19T03:19:38;20.50;79.60
53254;DHT22;39148;53.332;6.922;2022-08-19T03:22:04;20.50;79.60
53254;DHT22;39148;53.332;6.922;2022-08-19T03:24:30;20.50;79.70
53254;DHT22;39148;53.332;6.922;2022-08-19T03:26:57;20.40;79.70
53254;DHT22;39148;53.332;6.922;2022-08-19T03:29:25;20.40;79.70
53254;DHT22;39148;53.332;6.922;2022-08-19T03:31:51;20.40;79.80
53254;DHT22;39148;53.332;6.922;2022-08-19T03:34:29;20.40;79.70
53254;DHT22;39148;53.332;6.922;2022-08-19T03:36:59;20.30;79.90
53254;DHT22;39148;53.332;6.922;2022-08-19T03:39:28;20.40;79.90
53254;DHT22;39148;53.332;6.922;2022-08-19T03:41:54;20.40;79.70
53254;DHT22;39148;53.332;6.922;2022-08-19T03:44:25;20.40;79.80
53254;DHT22;39148;53.332;6.922;2022-08-19T03:46:56;20.40;79.80
53254;DHT22;39148;53.332;6.922;2022-08-19T03:49:22;20.40;80.00
53254;DHT22;39148;53.332;6.922;2022-08-19T03:51:49;20.40;80.10
53254;DHT22;39148;53.332;6.922;2022-08-19T03:54:19;20.10;79.60
53254;DHT22;39148;53.332;6.922;2022-08-19T03:56:47;20.30;80.00
53254;DHT22;39148;53.332;6.922;2022-08-19T03:59:21;20.30;79.90
53254;DHT22;39148;53.332;6.922;2022-08-19T04:01:47;20.30;78.70
53254;DHT22;39148;53.332;6.922;2022-08-19T04:04:13;20.20;79.70
53254;DHT22;39148;53.332;6.922;2022-08-19T04:06:39;20.20;79.70
53254;DHT22;39148;53.332;6.922;2022-08-19T04:09:08;20.20;79.70
53254;DHT22;39148;53.332;6.922;2022-08-19T04:11:37;20.30;79.90
53254;DHT22;39148;53.332;6.922;2022-08-19T04:14:06;20.20;79.90
53254;DHT22;39148;53.332;6.922;2022-08-19T04:16:31;20.20;79.80
53254;DHT22;39148;53.332;6.922;2022-08-19T04:19:00;20.20;79.80
53254;DHT22;39148;53.332;6.922;2022-08-19T04:21:27;20.20;80.10
53254;DHT22;39148;53.332;6.922;2022-08-19T04:23:55;20.10;80.50
53254;DHT22;39148;53.332;6.922;2022-08-19T04:26:25;20.20;80.00
53254;DHT22;39148;53.332;6.922;2022-08-19T04:28:51;20.30;80.10
53254;DHT22;39148;53.332;6.922;2022-08-19T04:31:26;20.20;80.00
53254;DHT22;39148;53.332;6.922;2022-08-19T04:33:56;20.10;80.30
53254;DHT22;39148;53.332;6.922;2022-08-19T04:36:26;20.10;80.20
53254;DHT22;39148;53.332;6.922;2022-08-19T04:38:57;20.10;80.10
53254;DHT22;39148;53.332;6.922;2022-08-19T04:41:23;19.90;80.10
53254;DHT22;39148;53.332;6.922;2022-08-19T04:44:07;20.10;79.30
53254;DHT22;39148;53.332;6.922;2022-08-19T04:46:33;20.00;80.00
53254;DHT22;39148;53.332;6.922;2022-08-19T04:49:00;20.00;80.00
53254;DHT22;39148;53.332;6.922;2022-08-19T04:51:27;20.00;80.10
53254;DHT22;39148;53.332;6.922;2022-08-19T04:53:53;20.00;80.10
53254;DHT22;39148;53.332;6.922;2022-08-19T04:56:20;20.00;80.00
53254;DHT22;39148;53.332;6.922;2022-08-19T04:58:47;20.00;80.10
53254;DHT22;39148;53.332;6.922;2022-08-19T05:01:17;19.90;80.10
53254;DHT22;39148;53.332;6.922;2022-08-19T05:03:43;20.00;80.20
53254;DHT22;39148;53.332;6.922;2022-08-19T05:06:14;20.00;80.10
53254;DHT22;39148;53.332;6.922;2022-08-19T05:08:40;20.00;80.30
53254;DHT22;39148;53.332;6.922;2022-08-19T05:13:40;20.00;79.20
53254;DHT22;39148;53.332;6.922;2022-08-19T05:16:06;19.90;80.10
53254;DHT22;39148;53.332;6.922;2022-08-19T05:18:32;19.90;80.00
53254;DHT22;39148;53.332;6.922;2022-08-19T05:21:19;19.90;79.50
53254;DHT22;39148;53.332;6.922;2022-08-19T05:24:05;19.90;80.50
53254;DHT22;39148;53.332;6.922;2022-08-19T05:26:36;20.00;80.40
53254;DHT22;39148;53.332;6.922;2022-08-19T05:29:02;19.90;80.40
53254;DHT22;39148;53.332;6.922;2022-08-19T05:31:29;20.00;80.40
53254;DHT22;39148;53.332;6.922;2022-08-19T05:33:54;19.80;80.30
53254;DHT22;39148;53.332;6.922;2022-08-19T05:36:21;19.80;80.30
53254;DHT22;39148;53.332;6.922;2022-08-19T05:38:47;19.80;80.30
53254;DHT22;39148;53.332;6.922;2022-08-19T05:41:14;19.80;80.40
53254;DHT22;39148;53.332;6.922;2022-08-19T05:43:40;19.80;80.40
53254;DHT22;39148;53.332;6.922;2022-08-19T05:46:07;19.80;80.30
53254;DHT22;39148;53.332;6.922;2022-08-19T05:48:34;19.90;80.40
53254;DHT22;39148;53.332;6.922;2022-08-19T05:51:05;19.70;80.30
53254;DHT22;39148;53.332;6.922;2022-08-19T05:53:34;19.80;80.50
53254;DHT22;39148;53.332;6.922;2022-08-19T05:56:07;19.80;80.50
53254;DHT22;39148;53.332;6.922;2022-08-19T05:58:35;19.80;80.60
53254;DHT22;39148;53.332;6.922;2022-08-19T06:01:01;19.80;80.50
53254;DHT22;39148;53.332;6.922;2022-08-19T06:03:32;19.80;80.50
53254;DHT22;39148;53.332;6.922;2022-08-19T06:05:59;19.80;80.50
53254;DHT22;39148;53.332;6.922;2022-08-19T06:08:26;19.80;80.50
53254;DHT22;39148;53.332;6.922;2022-08-19T06:10:53;19.70;80.50
53254;DHT22;39148;53.332;6.922;2022-08-19T06:13:18;19.60;80.50
53254;DHT22;39148;53.332;6.922;2022-08-19T06:15:45;19.70;80.40
53254;DHT22;39148;53.332;6.922;2022-08-19T06:18:15;19.80;80.60
53254;DHT22;39148;53.332;6.922;2022-08-19T06:20:41;19.80;80.60
53254;DHT22;39148;53.332;6.922;2022-08-19T06:23:08;19.70;80.60
53254;DHT22;39148;53.332;6.922;2022-08-19T06:25:35;19.70;80.40
53254;DHT22;39148;53.332;6.922;2022-08-19T06:28:00;19.90;80.70
53254;DHT22;39148;53.332;6.922;2022-08-19T06:30:26;19.80;80.40
53254;DHT22;39148;53.332;6.922;2022-08-19T06:32:52;19.80;80.50
53254;DHT22;39148;53.332;6.922;2022-08-19T06:35:18;19.70;80.30
53254;DHT22;39148;53.332;6.922;2022-08-19T06:37:44;19.80;80.40
53254;DHT22;39148;53.332;6.922;2022-08-19T06:40:10;19.80;80.50
53254;DHT22;39148;53.332;6.922;2022-08-19T06:42:38;19.80;80.40
53254;DHT22;39148;53.332;6.922;2022-08-19T06:45:05;19.80;80.60
53254;DHT22;39148;53.332;6.922;2022-08-19T06:47:31;19.80;80.40
53254;DHT22;39148;53.332;6.922;2022-08-19T06:49:59;19.80;80.50
53254;DHT22;39148;53.332;6.922;2022-08-19T06:52:33;19.80;80.70
53254;DHT22;39148;53.332;6.922;2022-08-19T06:55:00;19.80;80.70
53254;DHT22;39148;53.332;6.922;2022-08-19T06:57:26;19.90;80.70
53254;DHT22;39148;53.332;6.922;2022-08-19T06:59:52;19.80;80.50
53254;DHT22;39148;53.332;6.922;2022-08-19T07:02:19;19.80;80.60
53254;DHT22;39148;53.332;6.922;2022-08-19T07:04:45;19.90;81.20
53254;DHT22;39148;53.332;6.922;2022-08-19T07:07:14;19.80;80.70
53254;DHT22;39148;53.332;6.922;2022-08-19T07:09:42;19.80;80.90
53254;DHT22;39148;53.332;6.922;2022-08-19T07:12:10;19.90;80.90
53254;DHT22;39148;53.332;6.922;2022-08-19T07:14:37;19.90;81.00
53254;DHT22;39148;53.332;6.922;2022-08-19T07:17:09;19.90;81.00
53254;DHT22;39148;53.332;6.922;2022-08-19T07:19:36;19.90;79.90
53254;DHT22;39148;53.332;6.922;2022-08-19T07:22:04;19.90;81.00
53254;DHT22;39148;53.332;6.922;2022-08-19T07:24:32;19.90;81.10
53254;DHT22;39148;53.332;6.922;2022-08-19T07:27:00;19.90;81.10
53254;DHT22;39148;53.332;6.922;2022-08-19T07:29:29;19.90;81.10
53254;DHT22;39148;53.332;6.922;2022-08-19T07:31:56;19.90;81.10
53254;DHT22;39148;53.332;6.922;2022-08-19T07:34:23;19.90;81.10
53254;DHT22;39148;53.332;6.922;2022-08-19T07:36:49;19.90;81.00
53254;DHT22;39148;53.332;6.922;2022-08-19T07:39:23;19.90;81.10
53254;DHT22;39148;53.332;6.922;2022-08-19T07:41:49;19.90;81.30
53254;DHT22;39148;53.332;6.922;2022-08-19T07:44:17;19.90;81.00
53254;DHT22;39148;53.332;6.922;2022-08-19T07:46:46;20.00;81.20
53254;DHT22;39148;53.332;6.922;2022-08-19T07:49:13;20.00;81.30
53254;DHT22;39148;53.332;6.922;2022-08-19T07:51:49;20.00;81.20
53254;DHT22;39148;53.332;6.922;2022-08-19T07:54:15;20.20;80.10
53254;DHT22;39148;53.332;6.922;2022-08-19T07:56:41;20.10;81.10
53254;DHT22;39148;53.332;6.922;2022-08-19T07:59:07;20.10;80.80
53254;DHT22;39148;53.332;6.922;2022-08-19T08:01:35;20.10;80.90
53254;DHT22;39148;53.332;6.922;2022-08-19T08:04:01;20.10;81.00
53254;DHT22;39148;53.332;6.922;2022-08-19T08:06:45;20.10;80.40
53254;DHT22;39148;53.332;6.922;2022-08-19T08:09:32;20.10;80.00
53254;DHT22;39148;53.332;6.922;2022-08-19T08:12:10;20.10;81.00
53254;DHT22;39148;53.332;6.922;2022-08-19T08:14:42;20.20;81.00
53254;DHT22;39148;53.332;6.922;2022-08-19T08:17:10;20.20;79.70
53254;DHT22;39148;53.332;6.922;2022-08-19T08:19:36;20.20;80.80
53254;DHT22;39148;53.332;6.922;2022-08-19T08:22:02;20.20;80.70
53254;DHT22;39148;53.332;6.922;2022-08-19T08:24:30;20.20;80.80
53254;DHT22;39148;53.332;6.922;2022-08-19T08:26:58;20.20;80.80
53254;DHT22;39148;53.332;6.922;2022-08-19T08:29:25;20.30;80.80
53254;DHT22;39148;53.332;6.922;2022-08-19T08:31:51;20.30;80.70
53254;DHT22;39148;53.332;6.922;2022-08-19T08:34:17;20.30;80.50
53254;DHT22;39148;53.332;6.922;2022-08-19T08:36:45;20.40;80.50
53254;DHT22;39148;53.332;6.922;2022-08-19T08:39:21;20.30;80.60
53254;DHT22;39148;53.332;6.922;2022-08-19T08:42:05;20.50;80.80
53254;DHT22;39148;53.332;6.922;2022-08-19T08:47:15;20.40;80.50
53254;DHT22;39148;53.332;6.922;2022-08-19T08:49:50;20.40;80.50
53254;DHT22;39148;53.332;6.922;2022-08-19T08:52:26;20.50;80.60
53254;DHT22;39148;53.332;6.922;2022-08-19T08:54:55;20.60;80.60
53254;DHT22;39148;53.332;6.922;2022-08-19T08:57:29;20.60;80.40
53254;DHT22;39148;53.332;6.922;2022-08-19T09:00:00;20.70;79.30
53254;DHT22;39148;53.332;6.922;2022-08-19T09:02:29;20.70;80.40
53254;DHT22;39148;53.332;6.922;2022-08-19T09:04:55;20.70;80.10
53254;DHT22;39148;53.332;6.922;2022-08-19T09:10:33;20.70;79.40
53254;DHT22;39148;53.332;6.922;2022-08-19T09:15:46;20.80;79.40
53254;DHT22;39148;53.332;6.922;2022-08-19T09:18:14;20.90;80.70
53254;DHT22;39148;53.332;6.922;2022-08-19T09:20:42;20.90;80.50
53254;DHT22;39148;53.332;6.922;2022-08-19T09:23:07;21.00;80.60
53254;DHT22;39148;53.332;6.922;2022-08-19T09:25:33;21.00;80.50
53254;DHT22;39148;53.332;6.922;2022-08-19T09:28:00;21.00;80.60
53254;DHT22;39148;53.332;6.922;2022-08-19T09:30:31;21.10;80.60
53254;DHT22;39148;53.332;6.922;2022-08-19T09:32:58;21.10;80.70
53254;DHT22;39148;53.332;6.922;2022-08-19T09:35:26;21.20;80.60
53254;DHT22;39148;53.332;6.922;2022-08-19T09:37:54;21.20;80.70
53254;DHT22;39148;53.332;6.922;2022-08-19T09:40:20;21.20;80.60
53254;DHT22;39148;53.332;6.922;2022-08-19T09:42:47;21.30;80.60
53254;DHT22;39148;53.332;6.922;2022-08-19T09:45:14;21.40;80.80
53254;DHT22;39148;53.332;6.922;2022-08-19T09:47:40;21.40;80.70
53254;DHT22;39148;53.332;6.922;2022-08-19T09:50:08;21.40;80.70
53254;DHT22;39148;53.332;6.922;2022-08-19T09:52:34;21.40;80.80
53254;DHT22;39148;53.332;6.922;2022-08-19T09:55:06;21.50;80.80
53254;DHT22;39148;53.332;6.922;2022-08-19T09:57:32;21.50;80.60
53254;DHT22;39148;53.332;6.922;2022-08-19T09:59:58;21.70;80.80
53254;DHT22;39148;53.332;6.922;2022-08-19T10:02:24;21.60;80.60
53254;DHT22;39148;53.332;6.922;2022-08-19T10:04:50;21.60;81.00
53254;DHT22;39148;53.332;6.922;2022-08-19T10:07:34;21.80;80.90
53254;DHT22;39148;53.332;6.922;2022-08-19T10:10:01;21.70;80.80
53254;DHT22;39148;53.332;6.922;2022-08-19T10:12:26;21.80;81.30
53254;DHT22;39148;53.332;6.922;2022-08-19T10:14:52;21.80;80.70
53254;DHT22;39148;53.332;6.922;2022-08-19T10:17:20;21.90;80.80
53254;DHT22;39148;53.332;6.922;2022-08-19T10:19:46;21.90;80.80
53254;DHT22;39148;53.332;6.922;2022-08-19T10:22:13;22.00;80.80
53254;DHT22;39148;53.332;6.922;2022-08-19T10:24:39;22.10;80.80
53254;DHT22;39148;53.332;6.922;2022-08-19T10:27:05;22.10;80.60
53254;DHT22;39148;53.332;6.922;2022-08-19T10:29:32;22.20;80.60
53254;DHT22;39148;53.332;6.922;2022-08-19T10:32:04;22.20;80.70
53254;DHT22;39148;53.332;6.922;2022-08-19T10:34:33;22.30;80.80
53254;DHT22;39148;53.332;6.922;2022-08-19T10:37:00;22.30;80.60
53254;DHT22;39148;53.332;6.922;2022-08-19T10:39:26;22.40;80.40
53254;DHT22;39148;53.332;6.922;2022-08-19T10:41:55;22.40;80.40
53254;DHT22;39148;53.332;6.922;2022-08-19T10:44:22;22.50;80.40
53254;DHT22;39148;53.332;6.922;2022-08-19T10:46:49;22.50;80.30
53254;DHT22;39148;53.332;6.922;2022-08-19T10:49:15;22.50;80.30
53254;DHT22;39148;53.332;6.922;2022-08-19T10:51:42;22.70;80.20
53254;DHT22;39148;53.332;6.922;2022-08-19T10:54:27;22.60;79.60
53254;DHT22;39148;53.332;6.922;2022-08-19T10:57:13;22.70;80.00
53254;DHT22;39148;53.332;6.922;2022-08-19T10:59:38;22.80;80.00
53254;DHT22;39148;53.332;6.922;2022-08-19T11:02:07;22.70;80.00
53254;DHT22;39148;53.332;6.922;2022-08-19T11:04:36;22.90;80.30
53254;DHT22;39148;53.332;6.922;2022-08-19T11:07:03;22.80;80.00
53254;DHT22;39148;53.332;6.922;2022-08-19T11:09:29;22.80;79.80
53254;DHT22;39148;53.332;6.922;2022-08-19T11:11:55;23.10;79.90
53254;DHT22;39148;53.332;6.922;2022-08-19T11:14:22;23.10;79.80
53254;DHT22;39148;53.332;6.922;2022-08-19T11:16:50;23.20;79.60
53254;DHT22;39148;53.332;6.922;2022-08-19T11:19:17;23.10;79.50
53254;DHT22;39148;53.332;6.922;2022-08-19T11:21:47;23.20;79.50
53254;DHT22;39148;53.332;6.922;2022-08-19T11:24:24;23.30;79.50
53254;DHT22;39148;53.332;6.922;2022-08-19T11:26:52;23.30;79.70
53254;DHT22;39148;53.332;6.922;2022-08-19T11:29:22;23.40;79.40
53254;DHT22;39148;53.332;6.922;2022-08-19T11:31:51;23.40;79.60
53254;DHT22;39148;53.332;6.922;2022-08-19T11:34:23;23.50;79.10
53254;DHT22;39148;53.332;6.922;2022-08-19T11:36:50;23.50;79.20
53254;DHT22;39148;53.332;6.922;2022-08-19T11:39:18;23.60;79.10
53254;DHT22;39148;53.332;6.922;2022-08-19T11:41:45;23.60;79.00
53254;DHT22;39148;53.332;6.922;2022-08-19T11:44:11;23.60;78.90
53254;DHT22;39148;53.332;6.922;2022-08-19T11:46:37;23.60;78.70
53254;DHT22;39148;53.332;6.922;2022-08-19T11:49:04;23.70;78.80
53254;DHT22;39148;53.332;6.922;2022-08-19T11:51:31;23.80;78.90
53254;DHT22;39148;53.332;6.922;2022-08-19T11:53:58;23.80;78.80
53254;DHT22;39148;53.332;6.922;2022-08-19T11:56:25;23.80;78.80
53254;DHT22;39148;53.332;6.922;2022-08-19T11:58:53;23.90;78.70
53254;DHT22;39148;53.332;6.922;2022-08-19T12:01:21;24.00;78.70
53254;DHT22;39148;53.332;6.922;2022-08-19T12:03:49;24.00;78.70
53254;DHT22;39148;53.332;6.922;2022-08-19T12:06:19;24.00;78.70
53254;DHT22;39148;53.332;6.922;2022-08-19T12:08:46;24.10;78.70
53254;DHT22;39148;53.332;6.922;2022-08-19T12:11:13;24.20;78.50
53254;DHT22;39148;53.332;6.922;2022-08-19T12:13:39;24.20;78.50
53254;DHT22;39148;53.332;6.922;2022-08-19T12:16:13;24.20;78.20
53254;DHT22;39148;53.332;6.922;2022-08-19T12:18:39;24.30;77.20
53254;DHT22;39148;53.332;6.922;2022-08-19T12:21:08;24.40;78.20
53254;DHT22;39148;53.332;6.922;2022-08-19T12:23:36;24.30;78.00
53254;DHT22;39148;53.332;6.922;2022-08-19T12:26:02;24.30;78.00
53254;DHT22;39148;53.332;6.922;2022-08-19T12:28:28;24.50;78.00
53254;DHT22;39148;53.332;6.922;2022-08-19T12:30:56;23.30;77.30
53254;DHT22;39148;53.332;6.922;2022-08-19T12:33:22;24.40;77.90
53254;DHT22;39148;53.332;6.922;2022-08-19T12:35:51;24.60;77.80
53254;DHT22;39148;53.332;6.922;2022-08-19T12:38:18;24.60;77.80
53254;DHT22;39148;53.332;6.922;2022-08-19T12:40:48;24.70;77.80
53254;DHT22;39148;53.332;6.922;2022-08-19T12:43:14;24.70;78.00
53254;DHT22;39148;53.332;6.922;2022-08-19T12:45:41;24.70;77.80
53254;DHT22;39148;53.332;6.922;2022-08-19T12:48:08;24.80;77.60
53254;DHT22;39148;53.332;6.922;2022-08-19T12:50:34;24.80;77.60
53254;DHT22;39148;53.332;6.922;2022-08-19T12:53:00;24.90;77.40
53254;DHT22;39148;53.332;6.922;2022-08-19T12:55:26;24.90;77.40
53254;DHT22;39148;53.332;6.922;2022-08-19T12:57:53;24.90;77.20
53254;DHT22;39148;53.332;6.922;2022-08-19T13:00:21;25.00;77.20
53254;DHT22;39148;53.332;6.922;2022-08-19T13:02:49;25.00;77.30
53254;DHT22;39148;53.332;6.922;2022-08-19T13:05:18;25.10;77.30
53254;DHT22;39148;53.332;6.922;2022-08-19T13:07:48;24.90;77.30
53254;DHT22;39148;53.332;6.922;2022-08-19T13:10:17;25.00;77.40
53254;DHT22;39148;53.332;6.922;2022-08-19T13:12:44;25.10;77.20
53254;DHT22;39148;53.332;6.922;2022-08-19T13:15:11;25.20;77.00
53254;DHT22;39148;53.332;6.922;2022-08-19T13:17:39;25.20;77.00
53254;DHT22;39148;53.332;6.922;2022-08-19T13:20:07;25.20;76.90
53254;DHT22;39148;53.332;6.922;2022-08-19T13:22:33;25.30;76.60
53254;DHT22;39148;53.332;6.922;2022-08-19T13:25:02;25.30;76.80
53254;DHT22;39148;53.332;6.922;2022-08-19T13:27:29;25.30;76.80
53254;DHT22;39148;53.332;6.922;2022-08-19T13:29:54;25.30;77.30
53254;DHT22;39148;53.332;6.922;2022-08-19T13:32:39;25.30;75.80
53254;DHT22;39148;53.332;6.922;2022-08-19T13:35:23;26.70;76.80
53254;DHT22;39148;53.332;6.922;2022-08-19T13:37:49;25.40;76.70
53254;DHT22;39148;53.332;6.922;2022-08-19T13:40:24;25.50;76.70
53254;DHT22;39148;53.332;6.922;2022-08-19T13:42:54;25.40;76.70
53254;DHT22;39148;53.332;6.922;2022-08-19T13:45:23;25.40;76.70
53254;DHT22;39148;53.332;6.922;2022-08-19T13:47:51;25.60;76.70
53254;DHT22;39148;53.332;6.922;2022-08-19T13:50:21;25.50;76.60
53254;DHT22;39148;53.332;6.922;2022-08-19T13:52:47;25.60;76.70
53254;DHT22;39148;53.332;6.922;2022-08-19T13:55:15;25.60;76.60
53254;DHT22;39148;53.332;6.922;2022-08-19T13:57:41;25.60;76.60
53254;DHT22;39148;53.332;6.922;2022-08-19T14:00:14;25.50;76.50
53254;DHT22;39148;53.332;6.922;2022-08-19T14:02:41;25.70;76.50
53254;DHT22;39148;53.332;6.922;2022-08-19T14:05:10;25.60;76.40
53254;DHT22;39148;53.332;6.922;2022-08-19T14:07:36;25.70;76.60
53254;DHT22;39148;53.332;6.922;2022-08-19T14:10:07;25.60;76.40
53254;DHT22;39148;53.332;6.922;2022-08-19T14:12:33;25.60;76.20
53254;DHT22;39148;53.332;6.922;2022-08-19T14:15:00;25.70;76.30
53254;DHT22;39148;53.332;6.922;2022-08-19T14:17:26;25.70;76.20
53254;DHT22;39148;53.332;6.922;2022-08-19T14:19:58;25.70;76.00
53254;DHT22;39148;53.332;6.922;2022-08-19T14:22:27;25.80;76.40
53254;DHT22;39148;53.332;6.922;2022-08-19T14:24:52;25.70;75.90
53254;DHT22;39148;53.332;6.922;2022-08-19T14:27:18;25.70;75.90
53254;DHT22;39148;53.332;6.922;2022-08-19T14:29:44;25.80;75.90
53254;DHT22;39148;53.332;6.922;2022-08-19T14:32:10;25.70;75.80
53254;DHT22;39148;53.332;6.922;2022-08-19T14:34:37;25.80;75.90
53254;DHT22;39148;53.332;6.922;2022-08-19T14:37:03;25.80;75.80
53254;DHT22;39148;53.332;6.922;2022-08-19T14:39:29;25.90;75.80
53254;DHT22;39148;53.332;6.922;2022-08-19T14:41:54;25.90;75.90
53254;DHT22;39148;53.332;6.922;2022-08-19T14:44:21;25.80;75.80
53254;DHT22;39148;53.332;6.922;2022-08-19T14:46:48;25.80;75.70
53254;DHT22;39148;53.332;6.922;2022-08-19T14:49:13;25.80;75.70
53254;DHT22;39148;53.332;6.922;2022-08-19T14:51:39;25.90;75.70
53254;DHT22;39148;53.332;6.922;2022-08-19T14:54:05;25.90;75.70
53254;DHT22;39148;53.332;6.922;2022-08-19T14:56:31;25.90;75.80
53254;DHT22;39148;53.332;6.922;2022-08-19T14:58:57;25.90;75.80
53254;DHT22;39148;53.332;6.922;2022-08-19T15:01:26;25.80;75.80
53254;DHT22;39148;53.332;6.922;2022-08-19T15:03:52;25.90;75.90
53254;DHT22;39148;53.332;6.922;2022-08-19T15:06:21;25.90;75.90
53254;DHT22;39148;53.332;6.922;2022-08-19T15:08:47;25.80;75.90
53254;DHT22;39148;53.332;6.922;2022-08-19T15:11:16;25.90;75.80
53254;DHT22;39148;53.332;6.922;2022-08-19T15:13:43;26.00;76.00
53254;DHT22;39148;53.332;6.922;2022-08-19T15:16:10;25.90;75.90
53254;DHT22;39148;53.332;6.922;2022-08-19T15:18:36;26.00;75.90
53254;DHT22;39148;53.332;6.922;2022-08-19T15:21:03;25.90;75.80
53254;DHT22;39148;53.332;6.922;2022-08-19T15:23:29;25.90;75.90
53254;DHT22;39148;53.332;6.922;2022-08-19T15:25:55;25.90;75.90
53254;DHT22;39148;53.332;6.922;2022-08-19T15:28:25;26.00;75.80
53254;DHT22;39148;53.332;6.922;2022-08-19T15:30:51;26.10;76.00
53254;DHT22;39148;53.332;6.922;2022-08-19T15:33:18;25.90;75.90
53254;DHT22;39148;53.332;6.922;2022-08-19T15:35:46;26.00;75.90
53254;DHT22;39148;53.332;6.922;2022-08-19T15:38:13;25.90;76.30
53254;DHT22;39148;53.332;6.922;2022-08-19T15:40:39;26.00;75.80
53254;DHT22;39148;53.332;6.922;2022-08-19T15:43:06;26.00;75.80
53254;DHT22;39148;53.332;6.922;2022-08-19T15:45:32;25.90;76.10